createdAt,value
2022-09-30T00:02:14.942Z,13.80
2022-09-30T00:04:40.100Z,15.27
2022-09-30T00:07:03.573Z,14.75
2022-09-30T00:09:27.126Z,18.67
2022-09-30T00:11:50.792Z,14.70
2022-09-30T00:14:18.270Z,15.48
2022-09-30T00:16:41.789Z,13.70
2022-09-30T00:19:06.554Z,13.93
2022-09-30T00:21:32.655Z,15.48
2022-09-30T00:23:56.639Z,13.15
2022-09-30T00:26:23.034Z,14.15
2022-09-30T00:28:47.225Z,18.88
2022-09-30T00:31:14.548Z,13.90
2022-09-30T00:33:38.030Z,12.20
2022-09-30T00:36:02.339Z,13.05
2022-09-30T00:38:27.574Z,18.95
2022-09-30T00:40:51.570Z,15.88
2022-09-30T00:43:17.059Z,12.65
2022-09-30T00:45:40.658Z,12.80
2022-09-30T00:48:10.096Z,13.00
2022-09-30T00:50:38.865Z,13.38
2022-09-30T00:53:12.051Z,11.40
2022-09-30T00:55:48.298Z,13.82
2022-09-30T00:58:15.927Z,14.15
2022-09-30T01:00:39.407Z,17.48
2022-09-30T01:03:03.858Z,13.25
2022-09-30T01:05:27.873Z,14.15
2022-09-30T01:07:51.471Z,16.23
2022-09-30T01:10:14.876Z,16.05
2022-09-30T01:12:41.412Z,13.55
2022-09-30T01:15:05.351Z,11.38
2022-09-30T01:17:41.866Z,13.88
2022-09-30T01:20:36.602Z,12.88
2022-09-30T01:23:32.813Z,14.77
2022-09-30T01:26:30.292Z,12.57
2022-09-30T01:29:24.840Z,12.07
2022-09-30T01:31:58.343Z,12.32
2022-09-30T01:34:33.414Z,10.65
2022-09-30T01:37:10.951Z,12.93
2022-09-30T01:39:48.625Z,10.35
2022-09-30T01:42:22.572Z,14.10
2022-09-30T01:44:55.335Z,11.40
2022-09-30T01:47:26.796Z,11.25
2022-09-30T01:49:53.694Z,11.00
2022-09-30T01:52:23.250Z,14.10
2022-09-30T01:54:53.237Z,16.08
2022-09-30T01:57:21.787Z,11.40
2022-09-30T01:59:51.319Z,13.43
2022-09-30T02:02:22.066Z,15.65
2022-09-30T02:04:52.091Z,13.25
2022-09-30T02:07:25.086Z,11.40
2022-09-30T02:09:53.604Z,11.43
2022-09-30T02:12:20.846Z,11.05
2022-09-30T02:14:49.412Z,11.07
2022-09-30T02:17:20.288Z,13.00
2022-09-30T02:19:49.198Z,13.68
2022-09-30T02:22:18.940Z,13.88
2022-09-30T02:24:46.008Z,13.82
2022-09-30T02:27:16.252Z,11.10
2022-09-30T02:29:46.447Z,11.88
2022-09-30T02:32:16.767Z,12.30
2022-09-30T02:34:46.742Z,12.90
2022-09-30T02:37:15.645Z,15.10
2022-09-30T02:39:47.572Z,10.93
2022-09-30T02:42:19.153Z,13.35
2022-09-30T02:44:42.707Z,13.45
2022-09-30T02:47:15.239Z,11.98
2022-09-30T02:49:46.919Z,14.02
2022-09-30T02:52:22.357Z,13.73
2022-09-30T02:54:56.596Z,12.57
2022-09-30T02:57:31.509Z,13.50
2022-09-30T02:59:54.815Z,12.35
2022-09-30T03:02:18.338Z,11.68
2022-09-30T03:04:43.477Z,16.38
2022-09-30T03:07:08.457Z,14.63
2022-09-30T03:09:32.105Z,18.00
2022-09-30T03:12:04.260Z,17.63
2022-09-30T03:14:51.139Z,15.00
2022-09-30T03:17:38.875Z,13.98
2022-09-30T03:20:32.677Z,13.80
2022-09-30T03:23:35.170Z,17.60
2022-09-30T03:26:11.701Z,19.15
2022-09-30T03:28:37.571Z,17.05
2022-09-30T03:31:10.055Z,16.17
2022-09-30T03:33:44.660Z,20.55
2022-09-30T03:36:15.223Z,21.90
2022-09-30T03:38:49.487Z,18.23
2022-09-30T03:41:19.559Z,18.02
2022-09-30T03:43:47.743Z,20.10
2022-09-30T03:46:21.348Z,16.83
2022-09-30T03:48:47.246Z,18.48
2022-09-30T03:51:11.089Z,19.42
2022-09-30T03:53:41.716Z,20.75
2022-09-30T03:56:05.010Z,21.08
2022-09-30T03:58:28.498Z,20.73
2022-09-30T04:00:54.247Z,27.65
2022-09-30T04:03:18.304Z,22.50
2022-09-30T04:05:41.588Z,23.27
2022-09-30T04:08:04.864Z,28.02
2022-09-30T04:10:29.854Z,24.02
2022-09-30T04:12:55.136Z,25.55
2022-09-30T04:15:18.479Z,24.15
2022-09-30T04:17:41.748Z,21.80
2022-09-30T04:20:05.638Z,27.95
2022-09-30T04:22:28.913Z,25.23
2022-09-30T04:24:52.239Z,26.58
2022-09-30T04:27:16.758Z,24.98
2022-09-30T04:29:40.014Z,26.50
2022-09-30T04:32:03.470Z,29.45
2022-09-30T04:34:26.697Z,37.28
2022-09-30T04:36:49.906Z,33.40
2022-09-30T04:39:13.188Z,41.55
2022-09-30T04:41:38.246Z,40.08
2022-09-30T04:44:06.199Z,37.35
2022-09-30T04:46:29.431Z,32.83
2022-09-30T04:48:52.737Z,40.65
2022-09-30T04:51:18.086Z,35.35
2022-09-30T04:53:41.795Z,39.28
2022-09-30T04:56:05.660Z,39.85
2022-09-30T04:58:32.232Z,38.15
2022-09-30T05:01:08.828Z,45.53
2022-09-30T05:03:32.518Z,40.63
2022-09-30T05:05:56.248Z,52.67
2022-09-30T05:08:19.443Z,50.17
2022-09-30T05:10:42.658Z,56.60
2022-09-30T05:13:06.015Z,58.83
2022-09-30T05:15:29.352Z,51.67
2022-09-30T05:17:55.029Z,48.38
2022-09-30T05:20:21.249Z,45.13
2022-09-30T05:22:44.866Z,59.42
2022-09-30T05:25:09.204Z,64.50
2022-09-30T05:27:32.428Z,50.95
2022-09-30T05:29:55.652Z,56.15
2022-09-30T05:32:19.994Z,65.07
2022-09-30T05:34:44.656Z,54.13
2022-09-30T05:37:08.809Z,49.88
2022-09-30T05:39:32.531Z,47.95
2022-09-30T05:41:57.836Z,50.92
2022-09-30T05:44:21.477Z,54.13
2022-09-30T05:46:45.089Z,53.35
2022-09-30T05:49:08.311Z,51.92
2022-09-30T05:51:32.989Z,61.53
2022-09-30T05:53:56.221Z,65.72
2022-09-30T05:56:19.523Z,64.20
2022-09-30T05:58:43.036Z,89.50
2022-09-30T06:01:13.200Z,77.95
2022-09-30T06:03:38.359Z,76.95
2022-09-30T06:06:01.753Z,74.25
2022-09-30T06:08:26.564Z,73.72
2022-09-30T06:10:49.816Z,63.15
2022-09-30T06:13:13.378Z,71.72
2022-09-30T06:15:38.074Z,65.60
2022-09-30T06:18:01.636Z,67.78
2022-09-30T06:20:25.004Z,70.45
2022-09-30T06:22:48.323Z,64.40
2022-09-30T06:25:13.256Z,60.35
2022-09-30T06:27:37.172Z,55.78
2022-09-30T06:30:00.544Z,47.95
2022-09-30T06:32:26.001Z,50.63
2022-09-30T06:34:49.292Z,47.92
2022-09-30T06:37:13.770Z,44.45
2022-09-30T06:39:37.137Z,46.83
2022-09-30T06:42:01.728Z,39.72
2022-09-30T06:44:25.066Z,32.53
2022-09-30T06:46:53.493Z,31.40
2022-09-30T06:49:17.327Z,29.20
2022-09-30T06:51:40.522Z,29.90
2022-09-30T06:54:03.924Z,32.22
2022-09-30T06:56:27.551Z,31.95
2022-09-30T06:58:52.201Z,36.70
2022-09-30T07:01:16.500Z,32.55
2022-09-30T07:03:39.787Z,31.90
2022-09-30T07:06:05.277Z,39.67
2022-09-30T07:08:31.510Z,34.50
2022-09-30T07:10:54.814Z,38.63
2022-09-30T07:13:18.033Z,43.78
2022-09-30T07:15:44.734Z,43.38
2022-09-30T07:18:07.990Z,44.88
2022-09-30T07:20:31.293Z,42.60
2022-09-30T07:22:54.523Z,40.25
2022-09-30T07:25:18.661Z,39.15
2022-09-30T07:27:41.953Z,31.13
2022-09-30T07:30:13.341Z,36.22
2022-09-30T07:32:40.840Z,31.13
2022-09-30T07:35:04.340Z,31.15
2022-09-30T07:37:28.143Z,34.03
2022-09-30T07:39:51.427Z,27.17
2022-09-30T07:42:22.502Z,27.85
2022-09-30T07:44:46.440Z,23.92
2022-09-30T07:47:10.507Z,27.00
2022-09-30T07:49:35.216Z,25.65
2022-09-30T07:51:59.916Z,21.13
2022-09-30T07:54:27.129Z,22.38
2022-09-30T07:57:09.180Z,22.67
2022-09-30T07:59:36.404Z,21.83
2022-09-30T08:02:00.026Z,28.98
2022-09-30T08:04:24.519Z,19.83
2022-09-30T08:06:52.227Z,18.85
2022-09-30T08:09:16.852Z,22.52
2022-09-30T08:11:42.825Z,21.83
2022-09-30T08:14:06.868Z,21.38
2022-09-30T08:16:30.226Z,21.98
2022-09-30T08:18:56.227Z,23.45
2022-09-30T08:21:19.527Z,22.35
2022-09-30T08:23:44.321Z,22.25
2022-09-30T08:26:10.589Z,22.55
2022-09-30T08:28:34.689Z,26.35
2022-09-30T08:30:57.975Z,22.13
2022-09-30T08:33:21.142Z,24.02
2022-09-30T08:35:44.435Z,23.48
2022-09-30T08:38:07.753Z,26.60
2022-09-30T08:40:35.276Z,22.95
2022-09-30T08:43:15.739Z,23.02
2022-09-30T08:45:51.855Z,27.45
2022-09-30T08:48:33.755Z,27.00
2022-09-30T08:51:09.173Z,25.90
2022-09-30T08:53:37.999Z,26.25
2022-09-30T08:56:04.726Z,24.58
2022-09-30T08:58:32.030Z,21.25
2022-09-30T09:00:59.259Z,21.27
2022-09-30T09:03:28.621Z,22.38
2022-09-30T09:06:00.829Z,21.58
2022-09-30T09:08:36.885Z,23.23
2022-09-30T09:11:08.996Z,21.27
2022-09-30T09:13:47.912Z,23.15
2022-09-30T09:16:23.084Z,24.15
2022-09-30T09:18:57.998Z,22.70
2022-09-30T09:21:32.474Z,20.38
2022-09-30T09:23:59.492Z,20.85
2022-09-30T09:26:25.859Z,22.60
2022-09-30T09:29:04.749Z,22.67
2022-09-30T09:31:28.252Z,24.88
2022-09-30T09:33:52.760Z,24.17
2022-09-30T09:36:34.541Z,20.73
2022-09-30T09:39:21.815Z,20.98
2022-09-30T09:41:55.629Z,27.08
2022-09-30T09:44:27.588Z,26.25
2022-09-30T09:46:56.227Z,22.60
2022-09-30T09:49:34.892Z,22.60
2022-09-30T09:52:25.675Z,24.70
2022-09-30T09:54:52.431Z,24.52
2022-09-30T09:57:19.370Z,22.60
2022-09-30T09:59:58.500Z,19.52
2022-09-30T10:02:27.385Z,22.67
2022-09-30T10:04:59.917Z,25.88
2022-09-30T10:07:23.204Z,20.45
2022-09-30T10:09:46.449Z,21.15
2022-09-30T10:12:30.822Z,21.98
2022-09-30T10:15:03.141Z,21.70
2022-09-30T10:17:30.557Z,19.92
2022-09-30T10:19:56.675Z,21.75
2022-09-30T10:22:22.415Z,21.30
2022-09-30T10:24:45.771Z,21.48
2022-09-30T10:27:30.594Z,18.00
2022-09-30T10:29:53.875Z,21.83
2022-09-30T10:32:17.418Z,20.25
2022-09-30T10:34:42.826Z,19.38
2022-09-30T10:37:12.411Z,17.80
2022-09-30T10:39:37.914Z,19.63
2022-09-30T10:42:07.314Z,19.88
2022-09-30T10:44:32.599Z,19.55
2022-09-30T10:47:02.497Z,17.42
2022-09-30T10:49:29.994Z,17.77
2022-09-30T10:51:53.501Z,17.70
2022-09-30T10:54:49.332Z,19.73
2022-09-30T10:57:18.015Z,17.95
2022-09-30T10:59:44.690Z,15.90
2022-09-30T11:02:33.046Z,17.45
2022-09-30T11:05:06.732Z,16.35
2022-09-30T11:07:36.107Z,19.00
2022-09-30T11:10:07.910Z,16.55
2022-09-30T11:12:41.964Z,15.60
2022-09-30T11:15:14.839Z,16.73
2022-09-30T11:17:43.987Z,14.02
2022-09-30T11:20:18.753Z,13.07
2022-09-30T11:22:50.341Z,12.57
2022-09-30T11:25:16.599Z,15.85
2022-09-30T11:27:55.035Z,12.68
2022-09-30T11:30:26.691Z,15.43
2022-09-30T11:33:12.304Z,11.25
2022-09-30T11:35:49.784Z,10.07
2022-09-30T11:38:32.140Z,10.48
2022-09-30T11:41:05.769Z,11.52
2022-09-30T11:43:42.457Z,8.63
2022-09-30T11:46:37.744Z,10.68
2022-09-30T11:49:29.770Z,7.95
2022-09-30T11:52:05.729Z,7.72
2022-09-30T11:54:45.995Z,14.30
2022-09-30T11:57:15.766Z,9.48
2022-09-30T11:59:45.837Z,10.35
2022-09-30T12:02:28.811Z,7.57
2022-09-30T12:04:56.172Z,8.82
2022-09-30T12:07:37.703Z,7.70
2022-09-30T12:10:07.469Z,7.22
2022-09-30T12:12:32.146Z,9.43
2022-09-30T12:14:59.680Z,7.75
2022-09-30T12:17:31.302Z,6.68
2022-09-30T12:19:57.560Z,6.72
2022-09-30T12:22:28.506Z,7.20
2022-09-30T12:24:51.942Z,6.20
2022-09-30T12:27:22.274Z,7.57
2022-09-30T12:30:14.536Z,7.15
2022-09-30T12:33:13.074Z,4.65
2022-09-30T12:36:11.136Z,5.55
2022-09-30T12:38:59.366Z,5.93
2022-09-30T12:41:51.083Z,5.32
2022-09-30T12:44:45.284Z,6.10
2022-09-30T12:47:26.790Z,4.38
2022-09-30T12:49:52.140Z,6.72
2022-09-30T12:52:20.816Z,5.25
2022-09-30T12:54:49.308Z,5.10
2022-09-30T12:57:12.944Z,5.60
2022-09-30T12:59:39.455Z,8.73
2022-09-30T13:02:04.963Z,6.97
2022-09-30T13:04:35.521Z,6.97
2022-09-30T13:07:22.856Z,5.63
2022-09-30T13:10:25.319Z,6.97
2022-09-30T13:12:52.636Z,5.10
2022-09-30T13:15:44.133Z,5.63
2022-09-30T13:19:00.643Z,5.55
2022-09-30T13:21:26.032Z,6.65
2022-09-30T13:23:52.142Z,6.63
2022-09-30T13:26:50.851Z,5.03
2022-09-30T13:29:40.008Z,5.65
2022-09-30T13:32:06.272Z,6.13
2022-09-30T13:34:32.710Z,8.45
2022-09-30T13:37:01.304Z,4.72
2022-09-30T13:39:29.063Z,5.30
2022-09-30T13:42:10.394Z,4.82
2022-09-30T13:44:47.802Z,7.95
2022-09-30T13:47:20.961Z,6.05
2022-09-30T13:49:53.645Z,7.05
2022-09-30T13:52:23.508Z,5.57
2022-09-30T13:54:50.095Z,4.95
2022-09-30T13:57:22.232Z,9.55
2022-09-30T14:00:03.157Z,5.28
2022-09-30T14:03:07.380Z,6.90
2022-09-30T14:05:55.600Z,6.38
2022-09-30T14:09:15.758Z,4.15
2022-09-30T14:12:07.783Z,4.65
2022-09-30T14:15:19.007Z,5.78
2022-09-30T14:18:05.618Z,6.20
2022-09-30T14:20:43.010Z,4.43
2022-09-30T14:23:15.708Z,5.90
2022-09-30T14:25:52.137Z,4.05
2022-09-30T14:28:25.321Z,7.20
2022-09-30T14:31:08.117Z,6.55
2022-09-30T14:33:34.424Z,4.13
2022-09-30T14:36:01.766Z,5.18
2022-09-30T14:38:28.297Z,3.72
2022-09-30T14:40:54.811Z,3.13
2022-09-30T14:43:24.519Z,4.60
2022-09-30T14:45:53.888Z,4.63
2022-09-30T14:48:22.845Z,3.67
2022-09-30T14:50:51.870Z,3.53
2022-09-30T14:53:31.833Z,3.58
2022-09-30T14:55:55.184Z,3.97
2022-09-30T14:58:30.433Z,3.20
2022-09-30T15:01:04.860Z,4.88
2022-09-30T15:03:29.540Z,3.28
2022-09-30T15:05:53.381Z,2.72
2022-09-30T15:08:20.942Z,2.65
2022-09-30T15:10:49.802Z,2.20
2022-09-30T15:13:14.909Z,3.05
2022-09-30T15:15:40.678Z,3.95
2022-09-30T15:18:25.100Z,5.07
2022-09-30T15:20:49.217Z,3.42
2022-09-30T15:23:21.280Z,3.38
2022-09-30T15:25:44.703Z,3.20
2022-09-30T15:28:12.197Z,4.13
2022-09-30T15:30:35.523Z,3.53
2022-09-30T15:33:02.865Z,2.72
2022-09-30T15:35:26.246Z,4.97
2022-09-30T15:37:50.524Z,2.17
2022-09-30T15:40:34.578Z,2.88
2022-09-30T15:43:03.197Z,3.83
2022-09-30T15:45:35.043Z,2.40
2022-09-30T15:48:03.119Z,4.72
2022-09-30T15:50:44.239Z,3.33
2022-09-30T15:53:19.062Z,6.88
2022-09-30T15:55:46.289Z,3.50
2022-09-30T15:58:37.840Z,4.93
2022-09-30T16:01:22.087Z,3.35
2022-09-30T16:03:54.726Z,8.13
2022-09-30T16:06:25.943Z,3.03
2022-09-30T16:08:54.980Z,3.92
2022-09-30T16:11:23.155Z,2.38
2022-09-30T16:13:47.895Z,2.47
2022-09-30T16:16:22.085Z,2.53
2022-09-30T16:18:45.589Z,2.95
2022-09-30T16:21:44.224Z,3.25
2022-09-30T16:24:46.061Z,3.00
2022-09-30T16:27:29.919Z,4.15
2022-09-30T16:29:53.366Z,1.58
2022-09-30T16:32:16.848Z,3.95
2022-09-30T16:34:41.266Z,2.17
2022-09-30T16:37:13.415Z,2.58
2022-09-30T16:39:36.755Z,2.78
2022-09-30T16:42:00.007Z,2.60
2022-09-30T16:44:24.029Z,2.95
2022-09-30T16:46:47.660Z,2.28
2022-09-30T16:49:16.430Z,2.90
2022-09-30T16:51:39.732Z,2.10
2022-09-30T16:54:04.695Z,4.05
2022-09-30T16:56:28.274Z,1.48
2022-09-30T16:58:51.495Z,2.58
2022-09-30T17:01:20.804Z,4.20
2022-09-30T17:03:44.246Z,2.72
2022-09-30T17:06:07.643Z,2.53
2022-09-30T17:08:31.088Z,3.30
2022-09-30T17:10:56.152Z,3.20
2022-09-30T17:13:20.320Z,4.05
2022-09-30T17:15:44.627Z,4.97
2022-09-30T17:18:10.438Z,4.47
2022-09-30T17:20:34.342Z,4.30
2022-09-30T17:22:57.652Z,3.17
2022-09-30T17:25:21.261Z,3.03
2022-09-30T17:27:49.998Z,3.85
2022-09-30T17:30:13.703Z,3.50
2022-09-30T17:32:37.161Z,2.85
2022-09-30T17:35:00.348Z,3.60
2022-09-30T17:37:23.648Z,3.28
2022-09-30T17:39:47.228Z,5.30
2022-09-30T17:42:32.316Z,4.43
2022-09-30T17:44:57.419Z,2.72
2022-09-30T17:47:21.304Z,4.00
2022-09-30T17:49:44.956Z,2.50
2022-09-30T17:52:08.179Z,6.85
2022-09-30T17:54:32.382Z,2.38
2022-09-30T17:56:57.088Z,4.05
2022-09-30T17:59:21.758Z,5.15
2022-09-30T18:01:46.451Z,6.32
2022-09-30T18:04:09.911Z,3.40
2022-09-30T18:06:34.467Z,3.92
2022-09-30T18:08:57.660Z,2.85
2022-09-30T18:11:22.107Z,5.45
2022-09-30T18:13:45.276Z,6.60
2022-09-30T18:16:09.290Z,5.20
2022-09-30T18:18:35.410Z,3.88
2022-09-30T18:20:58.693Z,4.93
2022-09-30T18:23:22.022Z,4.38
2022-09-30T18:25:45.626Z,3.63
2022-09-30T18:28:09.631Z,4.32
2022-09-30T18:30:32.934Z,3.55
2022-09-30T18:32:57.076Z,3.20
2022-09-30T18:35:24.532Z,5.15
2022-09-30T18:37:49.639Z,3.88
2022-09-30T18:40:13.560Z,3.60
2022-09-30T18:42:38.133Z,4.30
2022-09-30T18:45:01.363Z,2.92
2022-09-30T18:47:24.640Z,3.55
2022-09-30T18:49:47.974Z,2.53
2022-09-30T18:52:12.705Z,2.75
2022-09-30T18:54:36.056Z,3.25
2022-09-30T18:56:59.871Z,3.65
2022-09-30T18:59:24.034Z,2.38
2022-09-30T19:01:49.341Z,3.70
2022-09-30T19:04:12.852Z,5.85
2022-09-30T19:06:36.149Z,3.80
2022-09-30T19:09:00.726Z,2.78
2022-09-30T19:11:24.978Z,4.38
2022-09-30T19:13:49.729Z,6.10
2022-09-30T19:16:13.307Z,3.47
2022-09-30T19:18:36.939Z,3.78
2022-09-30T19:21:05.963Z,4.03
2022-09-30T19:23:32.038Z,4.20
2022-09-30T19:25:58.625Z,4.88
2022-09-30T19:28:22.290Z,4.35
2022-09-30T19:30:46.593Z,3.60
2022-09-30T19:33:09.867Z,2.55
2022-09-30T19:35:40.466Z,4.90
2022-09-30T19:38:06.061Z,3.08
2022-09-30T19:43:02.028Z,2.75
2022-09-30T19:45:26.394Z,3.40
2022-09-30T19:47:49.756Z,3.95
2022-09-30T19:50:13.180Z,3.33
2022-09-30T19:52:44.145Z,3.47
2022-09-30T19:55:16.569Z,2.60
2022-09-30T19:57:42.408Z,7.05
2022-09-30T20:00:09.178Z,9.85
2022-09-30T20:02:32.580Z,4.93
2022-09-30T20:04:55.896Z,5.72
2022-09-30T20:07:19.065Z,5.22
2022-09-30T20:09:42.787Z,5.47
2022-09-30T20:12:07.074Z,6.50
2022-09-30T20:14:47.615Z,3.47
2022-09-30T20:17:12.815Z,5.45
2022-09-30T20:19:36.471Z,5.82
2022-09-30T20:22:00.001Z,4.47
2022-09-30T20:24:23.256Z,3.53
2022-09-30T20:26:47.584Z,5.05
2022-09-30T20:29:11.768Z,4.55
2022-09-30T20:31:35.815Z,5.07
2022-09-30T20:34:02.087Z,4.13
2022-09-30T20:36:26.509Z,7.75
2022-09-30T20:38:51.577Z,3.20
2022-09-30T20:41:15.351Z,5.82
2022-09-30T20:43:38.856Z,3.97
2022-09-30T20:46:05.224Z,3.55
2022-09-30T20:48:32.668Z,4.90
2022-09-30T20:50:58.148Z,5.97
2022-09-30T20:53:21.517Z,6.03
2022-09-30T20:55:45.608Z,5.13
2022-09-30T20:58:10.853Z,6.80
2022-09-30T21:00:37.275Z,4.55
2022-09-30T21:03:00.662Z,4.30
2022-09-30T21:05:23.965Z,7.20
2022-09-30T21:07:48.687Z,5.35
2022-09-30T21:10:12.128Z,3.53
2022-09-30T21:12:35.856Z,4.50
2022-09-30T21:15:00.187Z,4.95
2022-09-30T21:17:23.400Z,5.90
2022-09-30T21:19:46.595Z,4.05
2022-09-30T21:22:10.542Z,4.18
2022-09-30T21:24:35.110Z,4.90
2022-09-30T21:26:58.430Z,5.43
2022-09-30T21:29:22.236Z,2.75
2022-09-30T21:31:45.945Z,6.25
2022-09-30T21:34:13.576Z,4.60
2022-09-30T21:36:37.100Z,5.50
2022-09-30T21:39:03.422Z,3.22
2022-09-30T21:41:29.885Z,3.08
2022-09-30T21:43:54.098Z,3.47
2022-09-30T21:46:18.762Z,2.92
2022-09-30T21:48:42.755Z,6.07
2022-09-30T21:51:07.998Z,4.20
2022-09-30T21:53:32.016Z,3.85
2022-09-30T21:55:56.848Z,2.90
2022-09-30T21:58:23.081Z,2.80
2022-09-30T22:00:47.026Z,5.15
2022-09-30T22:03:11.120Z,6.35
2022-09-30T22:05:36.357Z,3.88
2022-09-30T22:08:01.467Z,4.82
2022-09-30T22:10:24.701Z,4.65
2022-09-30T22:12:48.035Z,4.38
2022-09-30T22:15:13.046Z,4.03
2022-09-30T22:17:36.248Z,4.10
2022-09-30T22:19:59.712Z,5.00
2022-09-30T22:22:22.924Z,8.30
2022-09-30T22:24:47.078Z,7.03
2022-09-30T22:27:11.006Z,5.63
2022-09-30T22:29:34.638Z,7.55
2022-09-30T22:32:01.824Z,4.35
2022-09-30T22:34:42.629Z,6.07
2022-09-30T22:37:23.614Z,4.63
2022-09-30T22:39:46.886Z,6.07
2022-09-30T22:42:10.162Z,5.70
2022-09-30T22:44:36.785Z,6.20
2022-09-30T22:47:02.384Z,4.57
2022-09-30T22:49:25.899Z,7.28
2022-09-30T22:51:52.068Z,6.32
2022-09-30T22:54:15.261Z,6.07
2022-09-30T22:56:38.635Z,7.50
2022-09-30T22:59:02.074Z,7.40
2022-09-30T23:01:25.327Z,5.95
2022-09-30T23:03:54.049Z,5.72
2022-09-30T23:06:17.367Z,4.25
2022-09-30T23:08:42.520Z,6.00
2022-09-30T23:11:06.105Z,6.90
2022-09-30T23:13:34.698Z,4.25
2022-09-30T23:15:59.727Z,6.18
2022-09-30T23:18:23.357Z,4.20
2022-09-30T23:20:57.090Z,5.75
2022-09-30T23:23:20.387Z,6.00
2022-09-30T23:25:43.742Z,5.10
2022-09-30T23:28:07.102Z,5.57
2022-09-30T23:30:30.456Z,5.63
2022-09-30T23:32:53.769Z,5.05
2022-09-30T23:35:17.178Z,6.32
2022-09-30T23:37:41.834Z,6.43
2022-09-30T23:40:06.183Z,6.05
2022-09-30T23:42:32.024Z,7.22
2022-09-30T23:44:55.413Z,7.57
2022-09-30T23:47:18.633Z,8.23
2022-09-30T23:49:43.100Z,5.15
2022-09-30T23:52:12.679Z,4.35
2022-09-30T23:54:37.970Z,5.97
2022-09-30T23:57:01.369Z,4.88
2022-09-30T23:59:24.692Z,6.15
